sensor_id;sensor_type;location;lat;lon;timestamp;P1;durP1;ratioP1;P2;durP2;ratioP2
18983;SDS011;9626;52.552;13.436;2023-01-25T00:02:13;19.10;;;12.33;;
18983;SDS011;9626;52.552;13.436;2023-01-25T00:04:39;19.77;;;12.43;;
18983;SDS011;9626;52.552;13.436;2023-01-25T00:07:05;19.77;;;12.13;;
18983;SDS011;9626;52.552;13.436;2023-01-25T00:09:31;20.60;;;12.73;;
18983;SDS011;9626;52.552;13.436;2023-01-25T00:11:57;18.40;;;11.97;;
18983;SDS011;9626;52.552;13.436;2023-01-25T00:14:23;19.03;;;12.50;;
18983;SDS011;9626;52.552;13.436;2023-01-25T00:16:50;21.23;;;13.50;;
18983;SDS011;9626;52.552;13.436;2023-01-25T00:19:17;18.87;;;12.93;;
18983;SDS011;9626;52.552;13.436;2023-01-25T00:21:43;20.37;;;12.53;;
18983;SDS011;9626;52.552;13.436;2023-01-25T00:24:09;17.97;;;12.57;;
18983;SDS011;9626;52.552;13.436;2023-01-25T00:26:39;20.50;;;12.77;;
18983;SDS011;9626;52.552;13.436;2023-01-25T00:29:10;17.27;;;12.03;;
18983;SDS011;9626;52.552;13.436;2023-01-25T00:39:35;19.17;;;12.80;;
18983;SDS011;9626;52.552;13.436;2023-01-25T00:42:01;18.53;;;12.00;;
18983;SDS011;9626;52.552;13.436;2023-01-25T00:44:27;18.00;;;11.87;;
18983;SDS011;9626;52.552;13.436;2023-01-25T00:46:53;17.90;;;12.63;;
18983;SDS011;9626;52.552;13.436;2023-01-25T00:49:24;18.37;;;12.70;;
18983;SDS011;9626;52.552;13.436;2023-01-25T00:51:51;17.50;;;11.93;;
18983;SDS011;9626;52.552;13.436;2023-01-25T00:54:18;20.30;;;12.53;;
18983;SDS011;9626;52.552;13.436;2023-01-25T00:56:45;18.83;;;12.87;;
18983;SDS011;9626;52.552;13.436;2023-01-25T00:59:11;17.57;;;11.20;;
18983;SDS011;9626;52.552;13.436;2023-01-25T01:01:39;20.17;;;12.43;;
18983;SDS011;9626;52.552;13.436;2023-01-25T01:04:06;16.63;;;11.33;;
18983;SDS011;9626;52.552;13.436;2023-01-25T01:09:18;18.03;;;12.23;;
18983;SDS011;9626;52.552;13.436;2023-01-25T01:11:46;17.40;;;12.10;;
18983;SDS011;9626;52.552;13.436;2023-01-25T01:14:12;15.17;;;11.63;;
18983;SDS011;9626;52.552;13.436;2023-01-25T01:16:38;18.53;;;12.33;;
18983;SDS011;9626;52.552;13.436;2023-01-25T01:19:05;16.63;;;12.37;;
18983;SDS011;9626;52.552;13.436;2023-01-25T01:21:31;18.80;;;12.37;;
18983;SDS011;9626;52.552;13.436;2023-01-25T01:23:57;18.53;;;12.50;;
18983;SDS011;9626;52.552;13.436;2023-01-25T01:26:23;17.60;;;12.23;;
18983;SDS011;9626;52.552;13.436;2023-01-25T01:28:58;17.50;;;12.13;;
18983;SDS011;9626;52.552;13.436;2023-01-25T01:31:25;18.53;;;12.83;;
18983;SDS011;9626;52.552;13.436;2023-01-25T01:33:52;17.07;;;11.90;;
18983;SDS011;9626;52.552;13.436;2023-01-25T01:36:20;18.27;;;12.87;;
18983;SDS011;9626;52.552;13.436;2023-01-25T01:38:48;18.57;;;12.80;;
18983;SDS011;9626;52.552;13.436;2023-01-25T01:41:14;18.27;;;11.67;;
18983;SDS011;9626;52.552;13.436;2023-01-25T01:43:41;19.30;;;12.60;;
18983;SDS011;9626;52.552;13.436;2023-01-25T01:46:12;19.43;;;11.63;;
18983;SDS011;9626;52.552;13.436;2023-01-25T01:48:54;19.10;;;12.50;;
18983;SDS011;9626;52.552;13.436;2023-01-25T01:54:12;20.13;;;12.57;;
18983;SDS011;9626;52.552;13.436;2023-01-25T01:56:45;20.17;;;13.37;;
18983;SDS011;9626;52.552;13.436;2023-01-25T01:59:33;18.63;;;12.70;;
18983;SDS011;9626;52.552;13.436;2023-01-25T02:02:04;18.43;;;13.20;;
18983;SDS011;9626;52.552;13.436;2023-01-25T02:04:31;18.07;;;12.73;;
18983;SDS011;9626;52.552;13.436;2023-01-25T02:09:30;18.53;;;13.20;;
18983;SDS011;9626;52.552;13.436;2023-01-25T02:11:59;17.13;;;12.10;;
18983;SDS011;9626;52.552;13.436;2023-01-25T02:14:26;16.67;;;12.20;;
18983;SDS011;9626;52.552;13.436;2023-01-25T02:16:54;19.33;;;12.80;;
18983;SDS011;9626;52.552;13.436;2023-01-25T02:19:25;19.53;;;13.13;;
18983;SDS011;9626;52.552;13.436;2023-01-25T02:21:58;21.80;;;13.17;;
18983;SDS011;9626;52.552;13.436;2023-01-25T02:24:32;18.63;;;11.77;;
18983;SDS011;9626;52.552;13.436;2023-01-25T02:26:59;20.60;;;12.67;;
18983;SDS011;9626;52.552;13.436;2023-01-25T02:29:26;18.63;;;12.77;;
18983;SDS011;9626;52.552;13.436;2023-01-25T02:32:04;17.97;;;12.80;;
18983;SDS011;9626;52.552;13.436;2023-01-25T02:34:30;20.07;;;13.23;;
18983;SDS011;9626;52.552;13.436;2023-01-25T02:36:56;18.83;;;12.90;;
18983;SDS011;9626;52.552;13.436;2023-01-25T02:39:23;16.97;;;12.30;;
18983;SDS011;9626;52.552;13.436;2023-01-25T02:41:52;20.73;;;13.00;;
18983;SDS011;9626;52.552;13.436;2023-01-25T02:44:29;19.50;;;12.10;;
18983;SDS011;9626;52.552;13.436;2023-01-25T02:46:57;17.37;;;12.27;;
18983;SDS011;9626;52.552;13.436;2023-01-25T02:49:23;17.43;;;12.77;;
18983;SDS011;9626;52.552;13.436;2023-01-25T02:51:50;21.73;;;13.40;;
18983;SDS011;9626;52.552;13.436;2023-01-25T02:54:22;21.33;;;12.87;;
18983;SDS011;9626;52.552;13.436;2023-01-25T02:56:50;17.90;;;12.17;;
18983;SDS011;9626;52.552;13.436;2023-01-25T02:59:16;21.27;;;13.67;;
18983;SDS011;9626;52.552;13.436;2023-01-25T03:01:43;20.50;;;13.13;;
18983;SDS011;9626;52.552;13.436;2023-01-25T03:04:10;17.30;;;12.53;;
18983;SDS011;9626;52.552;13.436;2023-01-25T03:06:36;18.03;;;12.80;;
18983;SDS011;9626;52.552;13.436;2023-01-25T03:12:08;19.40;;;12.83;;
18983;SDS011;9626;52.552;13.436;2023-01-25T03:14:35;19.57;;;13.17;;
18983;SDS011;9626;52.552;13.436;2023-01-25T03:17:01;19.17;;;12.23;;
18983;SDS011;9626;52.552;13.436;2023-01-25T03:19:27;19.70;;;13.07;;
18983;SDS011;9626;52.552;13.436;2023-01-25T03:21:53;21.93;;;13.50;;
18983;SDS011;9626;52.552;13.436;2023-01-25T03:24:19;20.60;;;13.67;;
18983;SDS011;9626;52.552;13.436;2023-01-25T03:26:45;20.43;;;13.47;;
18983;SDS011;9626;52.552;13.436;2023-01-25T03:29:30;20.13;;;13.57;;
18983;SDS011;9626;52.552;13.436;2023-01-25T03:31:58;18.30;;;12.27;;
18983;SDS011;9626;52.552;13.436;2023-01-25T03:34:24;19.67;;;13.70;;
18983;SDS011;9626;52.552;13.436;2023-01-25T03:36:50;18.30;;;12.57;;
18983;SDS011;9626;52.552;13.436;2023-01-25T03:39:16;18.33;;;12.80;;
18983;SDS011;9626;52.552;13.436;2023-01-25T03:41:42;21.13;;;14.17;;
18983;SDS011;9626;52.552;13.436;2023-01-25T03:44:08;18.90;;;13.87;;
18983;SDS011;9626;52.552;13.436;2023-01-25T03:46:38;22.07;;;13.90;;
18983;SDS011;9626;52.552;13.436;2023-01-25T03:49:10;19.70;;;14.23;;
18983;SDS011;9626;52.552;13.436;2023-01-25T03:51:36;21.90;;;14.23;;
18983;SDS011;9626;52.552;13.436;2023-01-25T03:54:03;20.83;;;13.03;;
18983;SDS011;9626;52.552;13.436;2023-01-25T03:56:29;21.20;;;14.33;;
18983;SDS011;9626;52.552;13.436;2023-01-25T03:58:56;18.97;;;13.43;;
18983;SDS011;9626;52.552;13.436;2023-01-25T04:01:22;20.33;;;14.03;;
18983;SDS011;9626;52.552;13.436;2023-01-25T04:03:48;20.00;;;13.97;;
18983;SDS011;9626;52.552;13.436;2023-01-25T04:06:14;20.47;;;14.57;;
18983;SDS011;9626;52.552;13.436;2023-01-25T04:08:40;19.80;;;14.50;;
18983;SDS011;9626;52.552;13.436;2023-01-25T04:11:07;21.63;;;14.70;;
18983;SDS011;9626;52.552;13.436;2023-01-25T04:13:35;22.03;;;14.53;;
18983;SDS011;9626;52.552;13.436;2023-01-25T04:16:03;21.93;;;14.77;;
18983;SDS011;9626;52.552;13.436;2023-01-25T04:18:30;22.63;;;15.23;;
18983;SDS011;9626;52.552;13.436;2023-01-25T04:20:56;21.83;;;15.27;;
18983;SDS011;9626;52.552;13.436;2023-01-25T04:23:23;21.60;;;14.80;;
18983;SDS011;9626;52.552;13.436;2023-01-25T04:25:53;21.73;;;16.27;;
18983;SDS011;9626;52.552;13.436;2023-01-25T04:28:22;21.80;;;15.47;;
18983;SDS011;9626;52.552;13.436;2023-01-25T04:30:49;23.07;;;15.20;;
18983;SDS011;9626;52.552;13.436;2023-01-25T04:33:15;22.50;;;14.87;;
18983;SDS011;9626;52.552;13.436;2023-01-25T04:35:42;21.77;;;15.47;;
18983;SDS011;9626;52.552;13.436;2023-01-25T04:38:09;23.17;;;14.77;;
18983;SDS011;9626;52.552;13.436;2023-01-25T04:40:36;21.57;;;14.87;;
18983;SDS011;9626;52.552;13.436;2023-01-25T04:43:02;21.67;;;15.57;;
18983;SDS011;9626;52.552;13.436;2023-01-25T04:45:29;22.50;;;16.30;;
18983;SDS011;9626;52.552;13.436;2023-01-25T04:47:56;24.43;;;16.50;;
18983;SDS011;9626;52.552;13.436;2023-01-25T04:50:23;28.73;;;15.07;;
18983;SDS011;9626;52.552;13.436;2023-01-25T04:52:50;24.33;;;16.43;;
18983;SDS011;9626;52.552;13.436;2023-01-25T04:55:16;21.90;;;15.70;;
18983;SDS011;9626;52.552;13.436;2023-01-25T04:57:43;24.27;;;16.00;;
18983;SDS011;9626;52.552;13.436;2023-01-25T05:00:09;24.93;;;16.20;;
18983;SDS011;9626;52.552;13.436;2023-01-25T05:02:36;23.57;;;15.67;;
18983;SDS011;9626;52.552;13.436;2023-01-25T05:05:02;21.70;;;16.27;;
18983;SDS011;9626;52.552;13.436;2023-01-25T05:07:29;22.13;;;14.27;;
18983;SDS011;9626;52.552;13.436;2023-01-25T05:09:55;21.57;;;15.60;;
18983;SDS011;9626;52.552;13.436;2023-01-25T05:12:21;21.33;;;15.27;;
18983;SDS011;9626;52.552;13.436;2023-01-25T05:14:50;25.00;;;16.73;;
18983;SDS011;9626;52.552;13.436;2023-01-25T05:17:16;24.13;;;16.90;;
18983;SDS011;9626;52.552;13.436;2023-01-25T05:19:42;25.37;;;17.73;;
18983;SDS011;9626;52.552;13.436;2023-01-25T05:22:12;24.23;;;16.70;;
18983;SDS011;9626;52.552;13.436;2023-01-25T05:24:40;27.07;;;17.60;;
18983;SDS011;9626;52.552;13.436;2023-01-25T05:27:07;28.13;;;18.20;;
18983;SDS011;9626;52.552;13.436;2023-01-25T05:29:38;30.30;;;17.93;;
18983;SDS011;9626;52.552;13.436;2023-01-25T05:32:07;28.27;;;17.70;;
18983;SDS011;9626;52.552;13.436;2023-01-25T05:34:35;27.20;;;18.10;;
18983;SDS011;9626;52.552;13.436;2023-01-25T05:37:02;29.00;;;18.83;;
18983;SDS011;9626;52.552;13.436;2023-01-25T05:39:30;26.17;;;18.70;;
18983;SDS011;9626;52.552;13.436;2023-01-25T05:41:56;27.90;;;17.20;;
18983;SDS011;9626;52.552;13.436;2023-01-25T05:44:22;25.77;;;17.57;;
18983;SDS011;9626;52.552;13.436;2023-01-25T05:46:48;23.40;;;17.27;;
18983;SDS011;9626;52.552;13.436;2023-01-25T05:49:15;25.63;;;17.37;;
18983;SDS011;9626;52.552;13.436;2023-01-25T05:51:42;27.57;;;18.57;;
18983;SDS011;9626;52.552;13.436;2023-01-25T05:54:13;25.87;;;17.50;;
18983;SDS011;9626;52.552;13.436;2023-01-25T05:56:41;28.20;;;18.53;;
18983;SDS011;9626;52.552;13.436;2023-01-25T05:59:08;28.27;;;18.10;;
18983;SDS011;9626;52.552;13.436;2023-01-25T06:01:35;29.33;;;18.83;;
18983;SDS011;9626;52.552;13.436;2023-01-25T06:04:02;27.23;;;17.27;;
18983;SDS011;9626;52.552;13.436;2023-01-25T06:06:28;28.50;;;18.20;;
18983;SDS011;9626;52.552;13.436;2023-01-25T06:08:54;28.60;;;19.70;;
18983;SDS011;9626;52.552;13.436;2023-01-25T06:11:21;26.43;;;17.63;;
18983;SDS011;9626;52.552;13.436;2023-01-25T06:13:48;27.23;;;18.13;;
18983;SDS011;9626;52.552;13.436;2023-01-25T06:16:16;24.37;;;18.00;;
18983;SDS011;9626;52.552;13.436;2023-01-25T06:18:43;27.70;;;19.43;;
18983;SDS011;9626;52.552;13.436;2023-01-25T06:21:09;16.93;;;11.50;;
18983;SDS011;9626;52.552;13.436;2023-01-25T06:23:36;17.83;;;11.83;;
18983;SDS011;9626;52.552;13.436;2023-01-25T06:26:04;16.80;;;10.63;;
18983;SDS011;9626;52.552;13.436;2023-01-25T06:28:33;17.63;;;11.10;;
18983;SDS011;9626;52.552;13.436;2023-01-25T06:31:07;19.10;;;12.53;;
18983;SDS011;9626;52.552;13.436;2023-01-25T06:33:39;15.53;;;10.87;;
18983;SDS011;9626;52.552;13.436;2023-01-25T06:36:11;14.97;;;10.77;;
18983;SDS011;9626;52.552;13.436;2023-01-25T06:38:39;14.90;;;10.33;;
18983;SDS011;9626;52.552;13.436;2023-01-25T06:41:06;15.77;;;9.97;;
18983;SDS011;9626;52.552;13.436;2023-01-25T06:43:35;13.27;;;9.60;;
18983;SDS011;9626;52.552;13.436;2023-01-25T06:46:05;15.30;;;9.83;;
18983;SDS011;9626;52.552;13.436;2023-01-25T06:48:34;14.20;;;9.40;;
18983;SDS011;9626;52.552;13.436;2023-01-25T06:51:01;13.47;;;9.43;;
18983;SDS011;9626;52.552;13.436;2023-01-25T06:53:30;15.77;;;11.20;;
18983;SDS011;9626;52.552;13.436;2023-01-25T06:55:58;15.57;;;9.77;;
18983;SDS011;9626;52.552;13.436;2023-01-25T06:58:26;14.93;;;9.93;;
18983;SDS011;9626;52.552;13.436;2023-01-25T07:00:53;13.80;;;9.33;;
18983;SDS011;9626;52.552;13.436;2023-01-25T07:03:24;17.80;;;10.87;;
18983;SDS011;9626;52.552;13.436;2023-01-25T07:05:50;14.53;;;9.20;;
18983;SDS011;9626;52.552;13.436;2023-01-25T07:08:19;14.57;;;10.20;;
18983;SDS011;9626;52.552;13.436;2023-01-25T07:10:52;15.33;;;10.77;;
18983;SDS011;9626;52.552;13.436;2023-01-25T07:13:19;15.87;;;10.33;;
18983;SDS011;9626;52.552;13.436;2023-01-25T07:15:50;14.77;;;10.37;;
18983;SDS011;9626;52.552;13.436;2023-01-25T07:18:21;19.30;;;10.83;;
18983;SDS011;9626;52.552;13.436;2023-01-25T07:20:49;15.37;;;11.77;;
18983;SDS011;9626;52.552;13.436;2023-01-25T07:23:19;18.27;;;12.23;;
18983;SDS011;9626;52.552;13.436;2023-01-25T07:25:45;17.37;;;12.47;;
18983;SDS011;9626;52.552;13.436;2023-01-25T07:28:13;20.77;;;12.80;;
18983;SDS011;9626;52.552;13.436;2023-01-25T07:30:39;20.93;;;12.23;;
18983;SDS011;9626;52.552;13.436;2023-01-25T07:33:07;23.50;;;15.23;;
18983;SDS011;9626;52.552;13.436;2023-01-25T07:35:34;19.60;;;13.53;;
18983;SDS011;9626;52.552;13.436;2023-01-25T07:38:01;22.03;;;15.00;;
18983;SDS011;9626;52.552;13.436;2023-01-25T07:40:27;20.47;;;14.50;;
18983;SDS011;9626;52.552;13.436;2023-01-25T07:42:53;22.13;;;13.77;;
18983;SDS011;9626;52.552;13.436;2023-01-25T07:45:20;18.53;;;12.90;;
18983;SDS011;9626;52.552;13.436;2023-01-25T07:47:46;22.60;;;15.53;;
18983;SDS011;9626;52.552;13.436;2023-01-25T07:50:13;23.10;;;15.03;;
18983;SDS011;9626;52.552;13.436;2023-01-25T07:52:39;22.07;;;15.10;;
18983;SDS011;9626;52.552;13.436;2023-01-25T07:55:06;22.77;;;14.83;;
18983;SDS011;9626;52.552;13.436;2023-01-25T07:57:32;25.50;;;15.93;;
18983;SDS011;9626;52.552;13.436;2023-01-25T07:59:58;24.23;;;14.60;;
18983;SDS011;9626;52.552;13.436;2023-01-25T08:02:25;21.87;;;15.30;;
18983;SDS011;9626;52.552;13.436;2023-01-25T08:04:53;27.10;;;16.50;;
18983;SDS011;9626;52.552;13.436;2023-01-25T08:07:19;22.40;;;15.20;;
18983;SDS011;9626;52.552;13.436;2023-01-25T08:09:48;25.30;;;15.50;;
18983;SDS011;9626;52.552;13.436;2023-01-25T08:12:14;25.50;;;15.20;;
18983;SDS011;9626;52.552;13.436;2023-01-25T08:14:42;26.80;;;17.07;;
18983;SDS011;9626;52.552;13.436;2023-01-25T08:17:08;28.53;;;16.67;;
18983;SDS011;9626;52.552;13.436;2023-01-25T08:19:34;26.77;;;16.33;;
18983;SDS011;9626;52.552;13.436;2023-01-25T08:22:00;32.87;;;22.10;;
18983;SDS011;9626;52.552;13.436;2023-01-25T08:24:26;26.80;;;17.97;;
18983;SDS011;9626;52.552;13.436;2023-01-25T08:26:52;69.13;;;49.63;;
18983;SDS011;9626;52.552;13.436;2023-01-25T08:29:18;37.40;;;26.57;;
18983;SDS011;9626;52.552;13.436;2023-01-25T08:31:44;33.90;;;22.83;;
18983;SDS011;9626;52.552;13.436;2023-01-25T08:34:11;26.97;;;17.73;;
18983;SDS011;9626;52.552;13.436;2023-01-25T08:36:39;30.87;;;18.67;;
18983;SDS011;9626;52.552;13.436;2023-01-25T08:39:06;29.73;;;18.77;;
18983;SDS011;9626;52.552;13.436;2023-01-25T08:41:33;27.53;;;18.27;;
18983;SDS011;9626;52.552;13.436;2023-01-25T08:44:00;35.80;;;18.83;;
18983;SDS011;9626;52.552;13.436;2023-01-25T08:46:27;31.03;;;18.40;;
18983;SDS011;9626;52.552;13.436;2023-01-25T08:48:55;30.30;;;18.53;;
18983;SDS011;9626;52.552;13.436;2023-01-25T08:51:22;30.57;;;19.57;;
18983;SDS011;9626;52.552;13.436;2023-01-25T08:53:49;31.77;;;20.67;;
18983;SDS011;9626;52.552;13.436;2023-01-25T08:56:16;38.83;;;18.60;;
18983;SDS011;9626;52.552;13.436;2023-01-25T08:58:43;28.93;;;17.47;;
18983;SDS011;9626;52.552;13.436;2023-01-25T09:01:11;28.47;;;16.77;;
18983;SDS011;9626;52.552;13.436;2023-01-25T09:03:40;27.47;;;17.50;;
18983;SDS011;9626;52.552;13.436;2023-01-25T09:06:08;46.20;;;19.00;;
18983;SDS011;9626;52.552;13.436;2023-01-25T09:08:35;30.03;;;16.67;;
18983;SDS011;9626;52.552;13.436;2023-01-25T09:11:03;56.33;;;20.20;;
18983;SDS011;9626;52.552;13.436;2023-01-25T09:13:31;24.33;;;15.00;;
18983;SDS011;9626;52.552;13.436;2023-01-25T09:16:07;29.80;;;16.10;;
18983;SDS011;9626;52.552;13.436;2023-01-25T09:18:36;22.03;;;14.77;;
18983;SDS011;9626;52.552;13.436;2023-01-25T09:21:05;22.27;;;14.53;;
18983;SDS011;9626;52.552;13.436;2023-01-25T09:23:35;26.93;;;15.43;;
18983;SDS011;9626;52.552;13.436;2023-01-25T09:26:08;28.97;;;18.47;;
18983;SDS011;9626;52.552;13.436;2023-01-25T09:28:40;22.70;;;14.30;;
18983;SDS011;9626;52.552;13.436;2023-01-25T09:31:08;23.40;;;15.17;;
18983;SDS011;9626;52.552;13.436;2023-01-25T09:33:36;23.20;;;14.77;;
18983;SDS011;9626;52.552;13.436;2023-01-25T09:36:04;26.60;;;14.67;;
18983;SDS011;9626;52.552;13.436;2023-01-25T09:38:31;21.90;;;13.83;;
18983;SDS011;9626;52.552;13.436;2023-01-25T09:41:05;24.37;;;14.90;;
18983;SDS011;9626;52.552;13.436;2023-01-25T09:46:50;44.70;;;18.30;;
18983;SDS011;9626;52.552;13.436;2023-01-25T09:55:13;33.43;;;21.13;;
18983;SDS011;9626;52.552;13.436;2023-01-25T09:57:42;26.60;;;16.10;;
18983;SDS011;9626;52.552;13.436;2023-01-25T10:00:16;29.63;;;17.60;;
18983;SDS011;9626;52.552;13.436;2023-01-25T10:05:29;35.60;;;17.80;;
18983;SDS011;9626;52.552;13.436;2023-01-25T10:08:01;26.37;;;16.17;;
18983;SDS011;9626;52.552;13.436;2023-01-25T10:10:40;49.03;;;17.33;;
18983;SDS011;9626;52.552;13.436;2023-01-25T10:13:11;25.47;;;14.87;;
18983;SDS011;9626;52.552;13.436;2023-01-25T10:15:43;32.33;;;16.70;;
18983;SDS011;9626;52.552;13.436;2023-01-25T10:18:20;27.20;;;15.93;;
18983;SDS011;9626;52.552;13.436;2023-01-25T10:20:57;25.00;;;15.43;;
18983;SDS011;9626;52.552;13.436;2023-01-25T10:28:25;24.60;;;14.57;;
18983;SDS011;9626;52.552;13.436;2023-01-25T10:31:05;30.43;;;14.80;;
18983;SDS011;9626;52.552;13.436;2023-01-25T10:33:53;25.40;;;14.73;;
18983;SDS011;9626;52.552;13.436;2023-01-25T10:36:22;24.20;;;13.73;;
18983;SDS011;9626;52.552;13.436;2023-01-25T10:38:54;23.00;;;14.57;;
18983;SDS011;9626;52.552;13.436;2023-01-25T10:41:38;25.67;;;15.23;;
18983;SDS011;9626;52.552;13.436;2023-01-25T10:44:11;25.90;;;14.63;;
18983;SDS011;9626;52.552;13.436;2023-01-25T10:46:58;27.17;;;15.63;;
18983;SDS011;9626;52.552;13.436;2023-01-25T10:49:48;24.30;;;15.90;;
18983;SDS011;9626;52.552;13.436;2023-01-25T10:52:17;27.97;;;16.03;;
18983;SDS011;9626;52.552;13.436;2023-01-25T10:54:48;25.90;;;15.40;;
18983;SDS011;9626;52.552;13.436;2023-01-25T10:57:43;26.70;;;15.13;;
18983;SDS011;9626;52.552;13.436;2023-01-25T11:03:03;26.83;;;15.33;;
18983;SDS011;9626;52.552;13.436;2023-01-25T11:05:31;26.07;;;15.77;;
18983;SDS011;9626;52.552;13.436;2023-01-25T11:07:58;26.17;;;16.50;;
18983;SDS011;9626;52.552;13.436;2023-01-25T11:10:39;26.60;;;15.07;;
18983;SDS011;9626;52.552;13.436;2023-01-25T11:18:27;27.57;;;15.17;;
18983;SDS011;9626;52.552;13.436;2023-01-25T11:21:04;29.00;;;17.33;;
18983;SDS011;9626;52.552;13.436;2023-01-25T11:23:43;33.13;;;17.17;;
18983;SDS011;9626;52.552;13.436;2023-01-25T11:26:24;28.50;;;16.87;;
18983;SDS011;9626;52.552;13.436;2023-01-25T11:29:04;28.47;;;17.93;;
18983;SDS011;9626;52.552;13.436;2023-01-25T11:31:33;29.00;;;17.63;;
18983;SDS011;9626;52.552;13.436;2023-01-25T11:33:59;29.40;;;16.77;;
18983;SDS011;9626;52.552;13.436;2023-01-25T11:36:31;28.87;;;17.40;;
18983;SDS011;9626;52.552;13.436;2023-01-25T11:41:54;29.60;;;17.70;;
18983;SDS011;9626;52.552;13.436;2023-01-25T11:55:46;35.43;;;22.33;;
18983;SDS011;9626;52.552;13.436;2023-01-25T11:58:27;33.97;;;18.30;;
18983;SDS011;9626;52.552;13.436;2023-01-25T12:06:48;29.10;;;17.30;;
18983;SDS011;9626;52.552;13.436;2023-01-25T12:12:24;44.67;;;24.47;;
18983;SDS011;9626;52.552;13.436;2023-01-25T12:22:49;43.17;;;21.27;;
18983;SDS011;9626;52.552;13.436;2023-01-25T12:28:13;32.30;;;16.77;;
18983;SDS011;9626;52.552;13.436;2023-01-25T12:33:46;27.70;;;17.17;;
18983;SDS011;9626;52.552;13.436;2023-01-25T12:36:31;31.33;;;17.47;;
18983;SDS011;9626;52.552;13.436;2023-01-25T12:39:03;30.80;;;18.47;;
18983;SDS011;9626;52.552;13.436;2023-01-25T12:44:15;30.07;;;16.87;;
18983;SDS011;9626;52.552;13.436;2023-01-25T12:47:04;35.10;;;20.03;;
18983;SDS011;9626;52.552;13.436;2023-01-25T12:49:50;35.17;;;20.73;;
18983;SDS011;9626;52.552;13.436;2023-01-25T12:54:54;42.37;;;21.67;;
18983;SDS011;9626;52.552;13.436;2023-01-25T12:57:32;35.10;;;20.00;;
18983;SDS011;9626;52.552;13.436;2023-01-25T13:00:17;35.30;;;19.83;;
18983;SDS011;9626;52.552;13.436;2023-01-25T13:05:46;38.10;;;20.07;;
18983;SDS011;9626;52.552;13.436;2023-01-25T13:11:19;41.70;;;20.83;;
18983;SDS011;9626;52.552;13.436;2023-01-25T13:13:50;37.27;;;20.67;;
18983;SDS011;9626;52.552;13.436;2023-01-25T13:18:54;35.90;;;20.30;;
18983;SDS011;9626;52.552;13.436;2023-01-25T13:21:41;37.37;;;21.30;;
18983;SDS011;9626;52.552;13.436;2023-01-25T13:24:16;49.83;;;23.03;;
18983;SDS011;9626;52.552;13.436;2023-01-25T13:34:57;32.57;;;18.83;;
18983;SDS011;9626;52.552;13.436;2023-01-25T13:37:25;36.47;;;21.47;;
18983;SDS011;9626;52.552;13.436;2023-01-25T13:39:54;35.50;;;20.47;;
18983;SDS011;9626;52.552;13.436;2023-01-25T13:42:32;36.67;;;21.70;;
18983;SDS011;9626;52.552;13.436;2023-01-25T13:45:01;37.80;;;19.63;;
18983;SDS011;9626;52.552;13.436;2023-01-25T13:50:33;36.50;;;21.23;;
18983;SDS011;9626;52.552;13.436;2023-01-25T13:53:04;38.47;;;20.70;;
18983;SDS011;9626;52.552;13.436;2023-01-25T13:55:43;50.47;;;25.57;;
18983;SDS011;9626;52.552;13.436;2023-01-25T14:00:57;38.33;;;20.60;;
18983;SDS011;9626;52.552;13.436;2023-01-25T14:03:39;33.23;;;18.20;;
18983;SDS011;9626;52.552;13.436;2023-01-25T14:06:13;34.20;;;18.03;;
18983;SDS011;9626;52.552;13.436;2023-01-25T14:08:46;30.40;;;17.07;;
18983;SDS011;9626;52.552;13.436;2023-01-25T14:11:25;31.23;;;19.20;;
18983;SDS011;9626;52.552;13.436;2023-01-25T14:16:43;32.03;;;18.10;;
18983;SDS011;9626;52.552;13.436;2023-01-25T14:19:22;33.07;;;18.27;;
18983;SDS011;9626;52.552;13.436;2023-01-25T14:22:35;30.23;;;17.70;;
18983;SDS011;9626;52.552;13.436;2023-01-25T14:27:32;32.03;;;18.13;;
18983;SDS011;9626;52.552;13.436;2023-01-25T14:30:00;34.63;;;18.83;;
18983;SDS011;9626;52.552;13.436;2023-01-25T14:32:28;34.90;;;19.73;;
18983;SDS011;9626;52.552;13.436;2023-01-25T14:34:54;34.43;;;18.83;;
18983;SDS011;9626;52.552;13.436;2023-01-25T14:37:20;33.90;;;18.27;;
18983;SDS011;9626;52.552;13.436;2023-01-25T14:39:47;32.07;;;18.23;;
18983;SDS011;9626;52.552;13.436;2023-01-25T14:42:15;36.70;;;19.67;;
18983;SDS011;9626;52.552;13.436;2023-01-25T14:44:42;32.30;;;17.87;;
18983;SDS011;9626;52.552;13.436;2023-01-25T14:47:28;30.83;;;17.87;;
18983;SDS011;9626;52.552;13.436;2023-01-25T14:52:53;35.90;;;21.43;;
18983;SDS011;9626;52.552;13.436;2023-01-25T14:55:19;35.27;;;17.47;;
18983;SDS011;9626;52.552;13.436;2023-01-25T14:57:46;31.37;;;17.63;;
18983;SDS011;9626;52.552;13.436;2023-01-25T15:00:32;32.63;;;17.43;;
18983;SDS011;9626;52.552;13.436;2023-01-25T15:03:00;31.83;;;16.73;;
18983;SDS011;9626;52.552;13.436;2023-01-25T15:05:30;32.40;;;18.50;;
18983;SDS011;9626;52.552;13.436;2023-01-25T15:10:31;36.37;;;18.23;;
18983;SDS011;9626;52.552;13.436;2023-01-25T15:13:01;31.70;;;17.67;;
18983;SDS011;9626;52.552;13.436;2023-01-25T15:15:36;32.50;;;18.57;;
18983;SDS011;9626;52.552;13.436;2023-01-25T15:21:17;29.57;;;16.33;;
18983;SDS011;9626;52.552;13.436;2023-01-25T15:23:45;32.27;;;16.43;;
18983;SDS011;9626;52.552;13.436;2023-01-25T15:26:19;31.47;;;16.13;;
18983;SDS011;9626;52.552;13.436;2023-01-25T15:28:45;32.30;;;17.20;;
18983;SDS011;9626;52.552;13.436;2023-01-25T15:31:19;34.83;;;17.93;;
18983;SDS011;9626;52.552;13.436;2023-01-25T15:33:49;44.93;;;21.67;;
18983;SDS011;9626;52.552;13.436;2023-01-25T15:36:15;33.83;;;18.07;;
18983;SDS011;9626;52.552;13.436;2023-01-25T15:38:42;32.27;;;17.03;;
18983;SDS011;9626;52.552;13.436;2023-01-25T15:41:08;28.50;;;16.27;;
18983;SDS011;9626;52.552;13.436;2023-01-25T15:43:36;41.30;;;22.73;;
18983;SDS011;9626;52.552;13.436;2023-01-25T15:46:02;37.03;;;23.30;;
18983;SDS011;9626;52.552;13.436;2023-01-25T15:48:36;31.23;;;17.87;;
18983;SDS011;9626;52.552;13.436;2023-01-25T15:51:06;37.87;;;18.07;;
18983;SDS011;9626;52.552;13.436;2023-01-25T15:53:32;30.43;;;16.43;;
18983;SDS011;9626;52.552;13.436;2023-01-25T15:56:00;33.13;;;18.10;;
18983;SDS011;9626;52.552;13.436;2023-01-25T15:58:30;29.90;;;15.90;;
18983;SDS011;9626;52.552;13.436;2023-01-25T16:01:00;29.93;;;15.83;;
18983;SDS011;9626;52.552;13.436;2023-01-25T16:03:27;27.63;;;14.90;;
18983;SDS011;9626;52.552;13.436;2023-01-25T16:05:58;29.47;;;16.20;;
18983;SDS011;9626;52.552;13.436;2023-01-25T16:08:26;28.03;;;14.47;;
18983;SDS011;9626;52.552;13.436;2023-01-25T16:10:53;27.00;;;13.83;;
18983;SDS011;9626;52.552;13.436;2023-01-25T16:13:19;29.93;;;15.47;;
18983;SDS011;9626;52.552;13.436;2023-01-25T16:15:48;27.27;;;14.63;;
18983;SDS011;9626;52.552;13.436;2023-01-25T16:18:17;31.27;;;15.27;;
18983;SDS011;9626;52.552;13.436;2023-01-25T16:20:43;28.87;;;14.77;;
18983;SDS011;9626;52.552;13.436;2023-01-25T16:23:09;29.90;;;15.90;;
18983;SDS011;9626;52.552;13.436;2023-01-25T16:25:39;28.07;;;14.70;;
18983;SDS011;9626;52.552;13.436;2023-01-25T16:28:13;31.80;;;16.93;;
18983;SDS011;9626;52.552;13.436;2023-01-25T16:30:40;29.70;;;15.47;;
18983;SDS011;9626;52.552;13.436;2023-01-25T16:33:08;26.40;;;14.00;;
18983;SDS011;9626;52.552;13.436;2023-01-25T16:35:35;27.20;;;14.53;;
18983;SDS011;9626;52.552;13.436;2023-01-25T16:38:01;26.13;;;14.93;;